sensor_id;sensor_type;location;lat;lon;timestamp;pressure;altitude;pressure_sealevel;temperature;humidity
25510;BME280;13413;52.336;21.200;2023-06-14T00:02:15;100647.58;;;15.38;73.56
25510;BME280;13413;52.336;21.200;2023-06-14T00:05:09;100639.99;;;15.37;73.54
25510;BME280;13413;52.336;21.200;2023-06-14T00:08:03;100636.54;;;15.38;73.56
25510;BME280;13413;52.336;21.200;2023-06-14T00:10:57;100640.20;;;15.37;73.60
25510;BME280;13413;52.336;21.200;2023-06-14T00:13:51;100643.70;;;15.35;73.64
25510;BME280;13413;52.336;21.200;2023-06-14T00:16:45;100644.13;;;15.33;73.77
25510;BME280;13413;52.336;21.200;2023-06-14T00:19:39;100639.25;;;15.32;73.77
25510;BME280;13413;52.336;21.200;2023-06-14T00:22:33;100636.24;;;15.32;73.65
25510;BME280;13413;52.336;21.200;2023-06-14T00:25:27;100637.48;;;15.32;73.83
25510;BME280;13413;52.336;21.200;2023-06-14T00:28:21;100636.36;;;15.32;73.92
25510;BME280;13413;52.336;21.200;2023-06-14T00:31:15;100633.98;;;15.31;73.95
25510;BME280;13413;52.336;21.200;2023-06-14T00:34:09;100627.22;;;15.30;73.91
25510;BME280;13413;52.336;21.200;2023-06-14T00:37:04;100625.86;;;15.29;74.04
25510;BME280;13413;52.336;21.200;2023-06-14T00:39:56;100626.93;;;15.28;74.08
25510;BME280;13413;52.336;21.200;2023-06-14T00:42:50;100630.80;;;15.27;74.07
25510;BME280;13413;52.336;21.200;2023-06-14T00:45:44;100626.34;;;15.23;74.08
25510;BME280;13413;52.336;21.200;2023-06-14T00:48:52;100623.19;;;15.21;74.08
25510;BME280;13413;52.336;21.200;2023-06-14T00:51:46;100625.70;;;15.19;74.15
25510;BME280;13413;52.336;21.200;2023-06-14T00:54:56;100621.52;;;15.20;74.11
25510;BME280;13413;52.336;21.200;2023-06-14T00:57:50;100624.69;;;15.22;74.15
25510;BME280;13413;52.336;21.200;2023-06-14T01:00:44;100624.30;;;15.21;74.12
25510;BME280;13413;52.336;21.200;2023-06-14T01:06:39;100624.98;;;15.24;74.07
25510;BME280;13413;52.336;21.200;2023-06-14T01:12:39;100620.38;;;15.25;74.11
25510;BME280;13413;52.336;21.200;2023-06-14T01:15:36;100618.96;;;15.21;74.23
25510;BME280;13413;52.336;21.200;2023-06-14T01:18:31;100617.23;;;15.20;74.14
25510;BME280;13413;52.336;21.200;2023-06-14T01:21:25;100613.69;;;15.23;74.31
25510;BME280;13413;52.336;21.200;2023-06-14T01:24:17;100610.89;;;15.24;74.26
25510;BME280;13413;52.336;21.200;2023-06-14T01:33:23;100600.44;;;15.26;74.36
25510;BME280;13413;52.336;21.200;2023-06-14T01:36:18;100594.35;;;15.23;74.34
25510;BME280;13413;52.336;21.200;2023-06-14T01:39:14;100596.98;;;15.25;74.41
25510;BME280;13413;52.336;21.200;2023-06-14T01:42:09;100597.80;;;15.24;74.36
25510;BME280;13413;52.336;21.200;2023-06-14T01:45:06;100601.31;;;15.23;74.34
25510;BME280;13413;52.336;21.200;2023-06-14T01:48:00;100602.58;;;15.25;74.43
25510;BME280;13413;52.336;21.200;2023-06-14T01:50:54;100607.85;;;15.24;74.49
25510;BME280;13413;52.336;21.200;2023-06-14T01:56:42;100600.65;;;15.23;74.58
25510;BME280;13413;52.336;21.200;2023-06-14T01:59:36;100596.79;;;15.16;74.87
25510;BME280;13413;52.336;21.200;2023-06-14T02:02:30;100598.40;;;14.94;74.95
25510;BME280;13413;52.336;21.200;2023-06-14T02:05:24;100595.06;;;14.93;75.17
25510;BME280;13413;52.336;21.200;2023-06-14T02:08:19;100593.29;;;14.98;75.16
25510;BME280;13413;52.336;21.200;2023-06-14T02:11:13;100591.17;;;15.03;75.11
25510;BME280;13413;52.336;21.200;2023-06-14T02:14:07;100592.20;;;15.09;75.06
25510;BME280;13413;52.336;21.200;2023-06-14T02:17:01;100595.86;;;15.14;74.99
25510;BME280;13413;52.336;21.200;2023-06-14T02:19:58;100599.17;;;15.17;74.97
25510;BME280;13413;52.336;21.200;2023-06-14T02:25:59;100594.20;;;15.17;75.04
25510;BME280;13413;52.336;21.200;2023-06-14T02:28:53;100592.42;;;15.14;75.11
25510;BME280;13413;52.336;21.200;2023-06-14T02:31:47;100592.09;;;15.12;74.99
25510;BME280;13413;52.336;21.200;2023-06-14T02:34:41;100591.98;;;15.15;75.02
25510;BME280;13413;52.336;21.200;2023-06-14T02:37:35;100595.89;;;15.18;74.84
25510;BME280;13413;52.336;21.200;2023-06-14T02:40:29;100602.50;;;15.24;74.78
25510;BME280;13413;52.336;21.200;2023-06-14T02:43:23;100598.89;;;15.26;74.93
25510;BME280;13413;52.336;21.200;2023-06-14T02:46:17;100599.98;;;15.27;75.01
25510;BME280;13413;52.336;21.200;2023-06-14T02:49:11;100603.38;;;15.28;74.81
25510;BME280;13413;52.336;21.200;2023-06-14T02:52:06;100607.66;;;15.32;74.64
25510;BME280;13413;52.336;21.200;2023-06-14T02:55:00;100606.77;;;15.35;74.84
25510;BME280;13413;52.336;21.200;2023-06-14T02:57:54;100603.65;;;15.36;74.75
25510;BME280;13413;52.336;21.200;2023-06-14T03:00:48;100598.13;;;15.34;74.84
25510;BME280;13413;52.336;21.200;2023-06-14T03:03:42;100595.28;;;15.33;74.66
25510;BME280;13413;52.336;21.200;2023-06-14T03:06:36;100596.52;;;15.34;74.79
25510;BME280;13413;52.336;21.200;2023-06-14T03:09:30;100597.42;;;15.36;74.74
25510;BME280;13413;52.336;21.200;2023-06-14T03:12:24;100601.71;;;15.37;74.71
25510;BME280;13413;52.336;21.200;2023-06-14T03:18:11;100595.10;;;15.36;74.68
25510;BME280;13413;52.336;21.200;2023-06-14T03:21:19;100590.61;;;15.35;74.69
25510;BME280;13413;52.336;21.200;2023-06-14T03:24:13;100586.82;;;15.35;74.65
25510;BME280;13413;52.336;21.200;2023-06-14T03:27:08;100590.90;;;15.36;74.88
25510;BME280;13413;52.336;21.200;2023-06-14T03:30:01;100588.76;;;15.36;74.77
25510;BME280;13413;52.336;21.200;2023-06-14T03:32:55;100588.52;;;15.38;74.84
25510;BME280;13413;52.336;21.200;2023-06-14T03:35:49;100587.78;;;15.41;74.69
25510;BME280;13413;52.336;21.200;2023-06-14T03:38:43;100583.52;;;15.41;74.65
25510;BME280;13413;52.336;21.200;2023-06-14T03:41:37;100581.53;;;15.41;74.73
25510;BME280;13413;52.336;21.200;2023-06-14T03:44:29;100581.86;;;15.41;74.71
25510;BME280;13413;52.336;21.200;2023-06-14T03:52:56;100581.10;;;15.44;74.82
25510;BME280;13413;52.336;21.200;2023-06-14T03:55:50;100578.20;;;15.45;74.92
25510;BME280;13413;52.336;21.200;2023-06-14T03:58:44;100574.52;;;15.46;74.89
25510;BME280;13413;52.336;21.200;2023-06-14T04:01:38;100579.59;;;15.49;74.94
25510;BME280;13413;52.336;21.200;2023-06-14T04:04:33;100580.34;;;15.50;75.03
25510;BME280;13413;52.336;21.200;2023-06-14T04:07:26;100587.48;;;15.50;74.85
25510;BME280;13413;52.336;21.200;2023-06-14T04:10:20;100590.69;;;15.54;74.85
25510;BME280;13413;52.336;21.200;2023-06-14T04:13:18;100592.64;;;15.54;75.10
25510;BME280;13413;52.336;21.200;2023-06-14T04:16:11;100597.04;;;15.55;75.03
25510;BME280;13413;52.336;21.200;2023-06-14T04:19:06;100596.95;;;15.58;74.86
25510;BME280;13413;52.336;21.200;2023-06-14T04:22:00;100593.13;;;15.59;74.89
25510;BME280;13413;52.336;21.200;2023-06-14T04:24:54;100592.82;;;15.60;74.91
25510;BME280;13413;52.336;21.200;2023-06-14T04:27:47;100590.14;;;15.60;75.01
25510;BME280;13413;52.336;21.200;2023-06-14T04:30:41;100583.96;;;15.59;75.05
25510;BME280;13413;52.336;21.200;2023-06-14T04:33:35;100586.27;;;15.61;75.04
25510;BME280;13413;52.336;21.200;2023-06-14T04:36:29;100587.75;;;15.61;75.10
25510;BME280;13413;52.336;21.200;2023-06-14T04:39:24;100592.36;;;15.63;75.12
25510;BME280;13413;52.336;21.200;2023-06-14T04:42:17;100590.02;;;15.64;75.17
25510;BME280;13413;52.336;21.200;2023-06-14T04:45:12;100586.90;;;15.64;75.08
25510;BME280;13413;52.336;21.200;2023-06-14T04:48:06;100583.94;;;15.66;75.08
25510;BME280;13413;52.336;21.200;2023-06-14T04:50:59;100587.11;;;15.70;75.26
25510;BME280;13413;52.336;21.200;2023-06-14T04:53:53;100588.30;;;15.70;75.30
25510;BME280;13413;52.336;21.200;2023-06-14T04:56:46;100589.54;;;15.71;75.22
25510;BME280;13413;52.336;21.200;2023-06-14T04:59:41;100591.60;;;15.72;75.38
25510;BME280;13413;52.336;21.200;2023-06-14T05:02:35;100589.79;;;15.74;75.48
25510;BME280;13413;52.336;21.200;2023-06-14T05:05:29;100585.77;;;15.78;75.44
25510;BME280;13413;52.336;21.200;2023-06-14T05:08:25;100589.11;;;15.82;75.32
25510;BME280;13413;52.336;21.200;2023-06-14T05:11:19;100594.75;;;15.88;75.49
25510;BME280;13413;52.336;21.200;2023-06-14T05:14:14;100592.16;;;15.90;75.54
25510;BME280;13413;52.336;21.200;2023-06-14T05:17:08;100596.65;;;15.92;75.47
25510;BME280;13413;52.336;21.200;2023-06-14T05:20:02;100604.80;;;15.96;75.46
25510;BME280;13413;52.336;21.200;2023-06-14T05:22:56;100606.84;;;15.98;75.48
25510;BME280;13413;52.336;21.200;2023-06-14T05:25:49;100606.09;;;16.00;75.49
25510;BME280;13413;52.336;21.200;2023-06-14T05:28:43;100599.83;;;16.03;75.56
25510;BME280;13413;52.336;21.200;2023-06-14T05:31:38;100604.06;;;16.03;75.45
25510;BME280;13413;52.336;21.200;2023-06-14T05:34:32;100606.22;;;16.05;75.56
25510;BME280;13413;52.336;21.200;2023-06-14T05:37:26;100609.88;;;16.09;75.58
25510;BME280;13413;52.336;21.200;2023-06-14T05:40:20;100611.29;;;16.14;75.61
25510;BME280;13413;52.336;21.200;2023-06-14T05:43:15;100613.70;;;16.19;75.60
25510;BME280;13413;52.336;21.200;2023-06-14T05:46:09;100617.25;;;16.23;75.43
25510;BME280;13413;52.336;21.200;2023-06-14T05:49:03;100609.39;;;16.28;75.46
25510;BME280;13413;52.336;21.200;2023-06-14T05:51:56;100608.52;;;16.33;75.62
25510;BME280;13413;52.336;21.200;2023-06-14T05:54:51;100611.24;;;16.35;75.56
25510;BME280;13413;52.336;21.200;2023-06-14T05:57:44;100605.92;;;16.36;75.57
25510;BME280;13413;52.336;21.200;2023-06-14T06:00:39;100608.19;;;16.38;75.50
25510;BME280;13413;52.336;21.200;2023-06-14T06:03:33;100604.85;;;16.42;75.66
25510;BME280;13413;52.336;21.200;2023-06-14T06:09:09;100614.98;;;16.58;75.57
25510;BME280;13413;52.336;21.200;2023-06-14T06:12:04;100615.86;;;16.64;75.66
25510;BME280;13413;52.336;21.200;2023-06-14T06:14:59;100622.15;;;16.72;75.54
25510;BME280;13413;52.336;21.200;2023-06-14T06:17:53;100619.75;;;16.73;75.19
25510;BME280;13413;52.336;21.200;2023-06-14T06:20:47;100619.77;;;16.77;75.39
25510;BME280;13413;52.336;21.200;2023-06-14T06:26:42;100622.04;;;16.81;75.07
25510;BME280;13413;52.336;21.200;2023-06-14T06:29:36;100622.82;;;16.85;75.15
25510;BME280;13413;52.336;21.200;2023-06-14T06:32:30;100624.14;;;16.87;75.05
25510;BME280;13413;52.336;21.200;2023-06-14T06:35:24;100630.07;;;16.87;74.92
25510;BME280;13413;52.336;21.200;2023-06-14T06:38:18;100628.39;;;16.87;75.02
25510;BME280;13413;52.336;21.200;2023-06-14T06:41:12;100630.19;;;16.88;74.95
25510;BME280;13413;52.336;21.200;2023-06-14T06:48:50;100630.20;;;16.89;75.05
25510;BME280;13413;52.336;21.200;2023-06-14T06:51:53;100632.05;;;16.88;75.38
25510;BME280;13413;52.336;21.200;2023-06-14T06:54:52;100636.87;;;16.90;75.41
25510;BME280;13413;52.336;21.200;2023-06-14T06:57:46;100636.67;;;16.92;75.46
25510;BME280;13413;52.336;21.200;2023-06-14T07:00:40;100635.79;;;16.97;75.65
25510;BME280;13413;52.336;21.200;2023-06-14T07:03:34;100633.58;;;17.02;75.57
25510;BME280;13413;52.336;21.200;2023-06-14T07:06:28;100625.98;;;17.07;75.71
25510;BME280;13413;52.336;21.200;2023-06-14T07:09:22;100626.21;;;17.13;75.74
25510;BME280;13413;52.336;21.200;2023-06-14T07:12:16;100626.92;;;17.22;75.81
25510;BME280;13413;52.336;21.200;2023-06-14T07:15:11;100628.91;;;17.30;75.83
25510;BME280;13413;52.336;21.200;2023-06-14T07:18:05;100628.48;;;17.32;75.72
25510;BME280;13413;52.336;21.200;2023-06-14T07:20:59;100628.29;;;17.39;75.72
25510;BME280;13413;52.336;21.200;2023-06-14T07:23:53;100629.34;;;17.44;75.51
25510;BME280;13413;52.336;21.200;2023-06-14T07:26:48;100637.55;;;17.50;75.59
25510;BME280;13413;52.336;21.200;2023-06-14T07:29:42;100642.20;;;17.61;75.69
25510;BME280;13413;52.336;21.200;2023-06-14T07:32:37;100637.66;;;17.70;75.56
25510;BME280;13413;52.336;21.200;2023-06-14T07:35:31;100635.63;;;17.85;75.72
25510;BME280;13413;52.336;21.200;2023-06-14T07:38:25;100635.45;;;17.98;75.38
25510;BME280;13413;52.336;21.200;2023-06-14T07:41:21;100634.32;;;18.06;74.87
25510;BME280;13413;52.336;21.200;2023-06-14T07:44:15;100639.55;;;18.16;74.71
25510;BME280;13413;52.336;21.200;2023-06-14T07:47:09;100636.05;;;18.23;73.98
25510;BME280;13413;52.336;21.200;2023-06-14T07:50:04;100634.88;;;18.37;74.60
25510;BME280;13413;52.336;21.200;2023-06-14T07:52:56;100638.56;;;18.58;74.67
25510;BME280;13413;52.336;21.200;2023-06-14T07:55:50;100643.90;;;18.79;74.34
25510;BME280;13413;52.336;21.200;2023-06-14T07:58:44;100640.80;;;19.00;74.31
25510;BME280;13413;52.336;21.200;2023-06-14T08:01:38;100639.08;;;19.24;73.95
25510;BME280;13413;52.336;21.200;2023-06-14T08:04:32;100641.27;;;19.47;73.79
25510;BME280;13413;52.336;21.200;2023-06-14T08:07:26;100643.90;;;19.58;71.47
25510;BME280;13413;52.336;21.200;2023-06-14T08:10:20;100641.84;;;19.56;71.43
25510;BME280;13413;52.336;21.200;2023-06-14T08:13:14;100639.70;;;19.56;71.03
25510;BME280;13413;52.336;21.200;2023-06-14T08:16:08;100641.75;;;19.60;70.77
25510;BME280;13413;52.336;21.200;2023-06-14T08:19:02;100637.81;;;19.66;70.38
25510;BME280;13413;52.336;21.200;2023-06-14T08:21:56;100639.55;;;19.72;69.93
25510;BME280;13413;52.336;21.200;2023-06-14T08:24:50;100635.44;;;19.77;69.61
25510;BME280;13413;52.336;21.200;2023-06-14T08:27:44;100641.77;;;19.78;68.50
25510;BME280;13413;52.336;21.200;2023-06-14T08:30:38;100642.27;;;19.75;68.24
25510;BME280;13413;52.336;21.200;2023-06-14T08:33:32;100642.80;;;19.75;68.55
25510;BME280;13413;52.336;21.200;2023-06-14T08:36:26;100645.19;;;19.76;68.72
25510;BME280;13413;52.336;21.200;2023-06-14T08:39:20;100650.37;;;19.78;68.70
25510;BME280;13413;52.336;21.200;2023-06-14T08:42:15;100643.98;;;19.79;68.19
25510;BME280;13413;52.336;21.200;2023-06-14T08:45:12;100643.77;;;19.75;67.82
25510;BME280;13413;52.336;21.200;2023-06-14T08:48:07;100648.47;;;19.75;67.47
25510;BME280;13413;52.336;21.200;2023-06-14T08:51:00;100651.75;;;19.74;67.23
25510;BME280;13413;52.336;21.200;2023-06-14T08:53:55;100660.48;;;19.75;67.47
25510;BME280;13413;52.336;21.200;2023-06-14T08:56:49;100666.52;;;19.79;67.14
25510;BME280;13413;52.336;21.200;2023-06-14T08:59:47;100665.73;;;19.78;66.85
25510;BME280;13413;52.336;21.200;2023-06-14T09:08:16;100647.98;;;19.85;67.49
25510;BME280;13413;52.336;21.200;2023-06-14T09:11:12;100651.83;;;19.84;67.60
25510;BME280;13413;52.336;21.200;2023-06-14T09:14:06;100650.98;;;19.82;67.62
25510;BME280;13413;52.336;21.200;2023-06-14T09:17:00;100647.35;;;19.74;67.23
25510;BME280;13413;52.336;21.200;2023-06-14T09:19:56;100649.46;;;19.65;67.08
25510;BME280;13413;52.336;21.200;2023-06-14T09:22:50;100648.98;;;19.61;67.00
25510;BME280;13413;52.336;21.200;2023-06-14T09:25:45;100650.93;;;19.61;66.92
25510;BME280;13413;52.336;21.200;2023-06-14T09:28:42;100652.80;;;19.61;66.53
25510;BME280;13413;52.336;21.200;2023-06-14T09:34:32;100647.98;;;19.62;65.80
25510;BME280;13413;52.336;21.200;2023-06-14T09:37:28;100651.33;;;19.75;65.82
25510;BME280;13413;52.336;21.200;2023-06-14T09:40:23;100653.38;;;19.88;65.57
25510;BME280;13413;52.336;21.200;2023-06-14T09:43:18;100650.43;;;20.01;65.06
25510;BME280;13413;52.336;21.200;2023-06-14T09:46:13;100651.73;;;20.10;64.20
25510;BME280;13413;52.336;21.200;2023-06-14T09:49:08;100660.08;;;20.05;63.91
25510;BME280;13413;52.336;21.200;2023-06-14T09:52:01;100657.95;;;20.04;63.69
25510;BME280;13413;52.336;21.200;2023-06-14T09:54:56;100655.23;;;20.05;64.12
25510;BME280;13413;52.336;21.200;2023-06-14T09:57:52;100658.54;;;20.06;63.66
25510;BME280;13413;52.336;21.200;2023-06-14T10:00:49;100659.10;;;20.01;63.38
25510;BME280;13413;52.336;21.200;2023-06-14T10:03:44;100663.10;;;20.02;63.36
25510;BME280;13413;52.336;21.200;2023-06-14T10:06:41;100664.15;;;20.02;63.12
25510;BME280;13413;52.336;21.200;2023-06-14T10:09:37;100663.42;;;20.06;63.21
25510;BME280;13413;52.336;21.200;2023-06-14T10:12:32;100669.09;;;20.02;61.94
25510;BME280;13413;52.336;21.200;2023-06-14T10:15:27;100671.16;;;19.93;61.82
25510;BME280;13413;52.336;21.200;2023-06-14T10:18:31;100671.08;;;19.89;62.17
25510;BME280;13413;52.336;21.200;2023-06-14T10:21:36;100668.83;;;19.91;62.38
25510;BME280;13413;52.336;21.200;2023-06-14T10:24:32;100667.86;;;19.92;62.43
25510;BME280;13413;52.336;21.200;2023-06-14T10:27:26;100671.67;;;19.94;62.38
25510;BME280;13413;52.336;21.200;2023-06-14T10:30:26;100665.09;;;19.91;62.22
25510;BME280;13413;52.336;21.200;2023-06-14T10:33:21;100670.84;;;19.93;61.94
25510;BME280;13413;52.336;21.200;2023-06-14T10:36:34;100665.55;;;19.94;61.73
25510;BME280;13413;52.336;21.200;2023-06-14T10:39:28;100669.23;;;19.95;60.99
25510;BME280;13413;52.336;21.200;2023-06-14T10:42:22;100672.22;;;19.92;61.33
25510;BME280;13413;52.336;21.200;2023-06-14T10:45:20;100672.58;;;19.95;61.02
25510;BME280;13413;52.336;21.200;2023-06-14T10:48:30;100672.67;;;20.01;60.46
25510;BME280;13413;52.336;21.200;2023-06-14T10:51:29;100666.89;;;20.10;59.71
25510;BME280;13413;52.336;21.200;2023-06-14T10:54:24;100664.47;;;20.25;60.46
25510;BME280;13413;52.336;21.200;2023-06-14T10:57:17;100663.20;;;20.38;59.37
25510;BME280;13413;52.336;21.200;2023-06-14T11:00:13;100661.70;;;20.43;58.87
25510;BME280;13413;52.336;21.200;2023-06-14T11:03:36;100660.17;;;20.67;58.46
25510;BME280;13413;52.336;21.200;2023-06-14T11:06:46;100652.64;;;21.19;57.45
25510;BME280;13413;52.336;21.200;2023-06-14T11:10:03;100643.85;;;21.51;56.95
25510;BME280;13413;52.336;21.200;2023-06-14T11:13:00;100647.21;;;21.57;56.00
25510;BME280;13413;52.336;21.200;2023-06-14T11:15:53;100646.41;;;21.58;55.75
25510;BME280;13413;52.336;21.200;2023-06-14T11:18:47;100644.41;;;21.58;55.31
25510;BME280;13413;52.336;21.200;2023-06-14T11:28:56;100645.09;;;21.27;54.88
25510;BME280;13413;52.336;21.200;2023-06-14T11:31:52;100638.00;;;21.29;54.96
25510;BME280;13413;52.336;21.200;2023-06-14T11:34:48;100638.14;;;21.33;54.99
25510;BME280;13413;52.336;21.200;2023-06-14T11:37:43;100640.63;;;21.33;54.21
25510;BME280;13413;52.336;21.200;2023-06-14T11:40:37;100645.21;;;21.30;54.25
25510;BME280;13413;52.336;21.200;2023-06-14T11:43:32;100647.68;;;21.28;54.79
25510;BME280;13413;52.336;21.200;2023-06-14T11:46:27;100648.88;;;21.25;54.66
25510;BME280;13413;52.336;21.200;2023-06-14T11:49:19;100648.95;;;21.23;54.12
25510;BME280;13413;52.336;21.200;2023-06-14T11:52:13;100650.11;;;21.17;53.94
25510;BME280;13413;52.336;21.200;2023-06-14T11:55:08;100652.95;;;21.18;54.04
25510;BME280;13413;52.336;21.200;2023-06-14T11:58:05;100648.63;;;21.16;53.72
25510;BME280;13413;52.336;21.200;2023-06-14T12:00:59;100647.36;;;21.28;54.32
25510;BME280;13413;52.336;21.200;2023-06-14T12:03:54;100650.25;;;21.55;53.97
25510;BME280;13413;52.336;21.200;2023-06-14T12:06:49;100650.41;;;21.72;54.50
25510;BME280;13413;52.336;21.200;2023-06-14T12:09:42;100652.52;;;21.84;53.77
25510;BME280;13413;52.336;21.200;2023-06-14T12:12:39;100649.69;;;21.88;52.47
25510;BME280;13413;52.336;21.200;2023-06-14T12:15:33;100645.33;;;22.15;53.13
25510;BME280;13413;52.336;21.200;2023-06-14T12:18:35;100649.42;;;22.39;51.65
25510;BME280;13413;52.336;21.200;2023-06-14T12:21:29;100649.48;;;22.24;49.66
25510;BME280;13413;52.336;21.200;2023-06-14T12:24:29;100646.45;;;22.02;49.63
25510;BME280;13413;52.336;21.200;2023-06-14T12:27:25;100645.08;;;21.97;49.94
25510;BME280;13413;52.336;21.200;2023-06-14T12:30:19;100649.07;;;21.92;49.34
25510;BME280;13413;52.336;21.200;2023-06-14T12:33:13;100648.62;;;21.78;49.91
25510;BME280;13413;52.336;21.200;2023-06-14T12:36:08;100641.05;;;21.74;49.98
25510;BME280;13413;52.336;21.200;2023-06-14T12:39:22;100631.39;;;21.78;50.32
25510;BME280;13413;52.336;21.200;2023-06-14T12:42:16;100630.64;;;21.87;50.40
25510;BME280;13413;52.336;21.200;2023-06-14T12:48:05;100619.80;;;22.01;50.33
25510;BME280;13413;52.336;21.200;2023-06-14T12:51:00;100614.17;;;21.98;50.49
25510;BME280;13413;52.336;21.200;2023-06-14T12:53:54;100621.63;;;22.07;50.41
25510;BME280;13413;52.336;21.200;2023-06-14T12:56:48;100618.14;;;22.15;49.75
25510;BME280;13413;52.336;21.200;2023-06-14T12:59:42;100626.19;;;22.14;48.69
25510;BME280;13413;52.336;21.200;2023-06-14T13:02:36;100616.44;;;22.16;49.01
25510;BME280;13413;52.336;21.200;2023-06-14T13:05:30;100614.58;;;22.22;48.37
25510;BME280;13413;52.336;21.200;2023-06-14T13:08:25;100614.52;;;22.12;48.22
25510;BME280;13413;52.336;21.200;2023-06-14T13:11:17;100609.20;;;22.07;48.26
25510;BME280;13413;52.336;21.200;2023-06-14T13:14:11;100608.75;;;22.09;48.67
25510;BME280;13413;52.336;21.200;2023-06-14T13:17:07;100606.95;;;22.14;48.37
25510;BME280;13413;52.336;21.200;2023-06-14T13:20:01;100607.40;;;22.23;48.40
25510;BME280;13413;52.336;21.200;2023-06-14T13:22:55;100606.55;;;22.27;47.70
25510;BME280;13413;52.336;21.200;2023-06-14T13:25:49;100602.48;;;22.33;48.21
25510;BME280;13413;52.336;21.200;2023-06-14T13:28:43;100606.86;;;22.43;48.16
25510;BME280;13413;52.336;21.200;2023-06-14T13:31:37;100602.19;;;22.51;48.26
25510;BME280;13413;52.336;21.200;2023-06-14T13:34:31;100604.80;;;22.50;47.62
25510;BME280;13413;52.336;21.200;2023-06-14T13:37:25;100603.42;;;22.26;47.51
25510;BME280;13413;52.336;21.200;2023-06-14T13:40:19;100602.08;;;22.11;48.05
25510;BME280;13413;52.336;21.200;2023-06-14T13:48:46;100591.85;;;22.06;48.27
25510;BME280;13413;52.336;21.200;2023-06-14T13:51:40;100588.88;;;22.00;48.72
25510;BME280;13413;52.336;21.200;2023-06-14T13:54:34;100588.41;;;22.11;48.77
25510;BME280;13413;52.336;21.200;2023-06-14T13:57:29;100585.16;;;22.21;48.48
25510;BME280;13413;52.336;21.200;2023-06-14T14:00:23;100593.06;;;22.25;47.96
25510;BME280;13413;52.336;21.200;2023-06-14T14:03:16;100590.61;;;22.14;48.01
25510;BME280;13413;52.336;21.200;2023-06-14T14:06:10;100592.20;;;22.01;48.14
25510;BME280;13413;52.336;21.200;2023-06-14T14:09:05;100591.04;;;21.94;48.33
25510;BME280;13413;52.336;21.200;2023-06-14T14:11:59;100589.89;;;21.94;48.12
25510;BME280;13413;52.336;21.200;2023-06-14T14:14:53;100591.48;;;21.94;48.14
25510;BME280;13413;52.336;21.200;2023-06-14T14:17:48;100589.95;;;21.89;47.90
25510;BME280;13413;52.336;21.200;2023-06-14T14:20:41;100587.35;;;21.83;47.78
25510;BME280;13413;52.336;21.200;2023-06-14T14:23:35;100585.11;;;21.81;48.10
25510;BME280;13413;52.336;21.200;2023-06-14T14:26:32;100578.52;;;21.90;48.26
25510;BME280;13413;52.336;21.200;2023-06-14T14:29:26;100582.50;;;21.94;48.09
25510;BME280;13413;52.336;21.200;2023-06-14T14:32:20;100584.65;;;21.89;47.95
25510;BME280;13413;52.336;21.200;2023-06-14T14:35:15;100582.23;;;21.80;48.21
25510;BME280;13413;52.336;21.200;2023-06-14T14:38:09;100574.46;;;21.71;48.47
25510;BME280;13413;52.336;21.200;2023-06-14T14:41:03;100574.45;;;21.71;48.75
25510;BME280;13413;52.336;21.200;2023-06-14T14:43:57;100578.32;;;21.72;48.67
25510;BME280;13413;52.336;21.200;2023-06-14T14:46:51;100573.45;;;21.72;48.75
25510;BME280;13413;52.336;21.200;2023-06-14T14:49:45;100573.35;;;21.72;48.86
25510;BME280;13413;52.336;21.200;2023-06-14T14:52:39;100571.45;;;21.72;48.45
25510;BME280;13413;52.336;21.200;2023-06-14T14:55:33;100565.91;;;21.73;48.77
25510;BME280;13413;52.336;21.200;2023-06-14T14:58:27;100566.71;;;21.83;49.22
25510;BME280;13413;52.336;21.200;2023-06-14T15:01:21;100560.86;;;21.91;49.09
25510;BME280;13413;52.336;21.200;2023-06-14T15:04:15;100564.10;;;21.95;49.33
25510;BME280;13413;52.336;21.200;2023-06-14T15:07:08;100559.84;;;21.96;49.44
25510;BME280;13413;52.336;21.200;2023-06-14T15:10:03;100557.60;;;21.97;49.58
25510;BME280;13413;52.336;21.200;2023-06-14T15:12:56;100554.58;;;21.94;49.88
25510;BME280;13413;52.336;21.200;2023-06-14T15:15:50;100555.20;;;21.90;50.28
25510;BME280;13413;52.336;21.200;2023-06-14T15:18:45;100553.98;;;21.94;50.14
25510;BME280;13413;52.336;21.200;2023-06-14T15:21:38;100559.06;;;21.92;49.40
25510;BME280;13413;52.336;21.200;2023-06-14T15:24:32;100558.48;;;21.81;48.82
25510;BME280;13413;52.336;21.200;2023-06-14T15:27:26;100553.85;;;21.66;48.43
25510;BME280;13413;52.336;21.200;2023-06-14T15:30:21;100553.77;;;21.53;48.00
25510;BME280;13413;52.336;21.200;2023-06-14T15:33:14;100557.06;;;21.47;47.71
25510;BME280;13413;52.336;21.200;2023-06-14T15:36:09;100555.95;;;21.42;47.47
25510;BME280;13413;52.336;21.200;2023-06-14T15:39:04;100558.44;;;21.37;47.90
25510;BME280;13413;52.336;21.200;2023-06-14T15:41:57;100552.49;;;21.31;47.90
25510;BME280;13413;52.336;21.200;2023-06-14T15:44:52;100553.86;;;21.21;48.27
25510;BME280;13413;52.336;21.200;2023-06-14T15:47:45;100553.20;;;21.22;48.74
25510;BME280;13413;52.336;21.200;2023-06-14T15:50:39;100551.21;;;21.23;49.05
25510;BME280;13413;52.336;21.200;2023-06-14T15:53:32;100549.58;;;21.17;49.33
25510;BME280;13413;52.336;21.200;2023-06-14T15:56:27;100547.61;;;21.09;49.75
25510;BME280;13413;52.336;21.200;2023-06-14T15:59:20;100550.81;;;21.07;50.04
25510;BME280;13413;52.336;21.200;2023-06-14T16:08:56;100545.75;;;20.97;50.88
25510;BME280;13413;52.336;21.200;2023-06-14T16:11:49;100549.22;;;20.95;51.23